Time;durP1;ratioP1;P1;durP2;ratioP2;P2;SDS_P1;SDS_P2;PMS_P1;PMS_P2;Temp;Humidity;BMP_temperature;BMP_pressure;BME280_temperature;BME280_humidity;BME280_pressure;Samples;Min_cycle;Max_cycle;Signal;HPM_P1;HPM_P2
2022/05/25 00:00:44;;;;;;;3.35;2.60;;;;;;;11.15;89.62;101240.53;5074396;28;20029;-35
2022/05/25 00:03:10;;;;;;;5.20;2.43;;;;;;;11.15;90.28;101240.53;5074100;28;20031;-35
2022/05/25 00:05:36;;;;;;;3.35;2.70;;;;;;;11.14;89.95;101243.47;5074805;28;20024;-35
2022/05/25 00:08:02;;;;;;;3.08;2.65;;;;;;;11.12;90.11;101246.38;5074158;28;20105;-35
2022/05/25 00:10:27;;;;;;;3.75;2.50;;;;;;;11.07;89.88;101249.75;5074591;28;20048;-35
2022/05/25 00:12:52;;;;;;;2.97;2.50;;;;;;;11.00;90.03;101254.41;5073613;28;20122;-35
2022/05/25 00:15:18;;;;;;;4.47;2.90;;;;;;;11.05;89.92;101253.75;5074153;28;20615;-35
2022/05/25 00:17:43;;;;;;;3.80;2.80;;;;;;;10.92;90.10;101249.28;5073903;28;20107;-35
2022/05/25 00:20:10;;;;;;;4.00;2.83;;;;;;;10.86;90.80;101242.06;5073751;28;20395;-35
2022/05/25 00:22:46;;;;;;;4.32;2.80;;;;;;;10.88;90.70;101250.78;5074405;28;20410;-35
2022/05/25 00:25:30;;;;;;;4.38;3.03;;;;;;;10.93;90.38;101255.53;5073669;28;20414;-35
2022/05/25 00:27:58;;;;;;;3.55;2.70;;;;;;;10.93;90.70;101252.81;5073903;28;20044;-35
2022/05/25 00:30:25;;;;;;;3.75;3.17;;;;;;;10.90;90.71;101262.22;5073784;28;20104;-35
2022/05/25 00:32:51;;;;;;;4.57;3.20;;;;;;;10.93;90.58;101258.22;5073966;28;20043;-35
2022/05/25 00:35:23;;;;;;;4.07;2.83;;;;;;;10.92;90.52;101254.69;5073501;28;20417;-35
2022/05/25 00:37:49;;;;;;;4.85;3.60;;;;;;;10.86;90.72;101266.41;5073440;28;20076;-35
2022/05/25 00:40:19;;;;;;;4.28;3.28;;;;;;;10.79;90.72;101258.38;5073105;28;20098;-35
2022/05/25 00:42:44;;;;;;;3.47;3.17;;;;;;;10.79;90.52;101262.97;5073486;28;20025;-35
2022/05/25 00:45:11;;;;;;;5.78;4.15;;;;;;;10.76;91.03;101257.97;5073203;28;20036;-35
2022/05/25 00:47:39;;;;;;;3.67;3.33;;;;;;;10.69;91.68;101262.63;5073918;28;20028;-35
2022/05/25 00:50:08;;;;;;;4.63;3.38;;;;;;;10.68;91.76;101258.25;5073178;28;20028;-35
2022/05/25 00:52:33;;;;;;;6.55;3.60;;;;;;;10.63;91.81;101258.91;5073804;28;20036;-35
2022/05/25 00:55:02;;;;;;;4.68;3.90;;;;;;;10.57;91.34;101254.41;5073172;28;20020;-35
2022/05/25 00:57:33;;;;;;;4.13;3.33;;;;;;;10.58;91.66;101267.69;5072865;28;20029;-35
2022/05/25 01:00:05;;;;;;;8.48;3.67;;;;;;;10.61;91.44;101276.44;5073604;28;20028;-35
2022/05/25 01:02:32;;;;;;;5.03;4.05;;;;;;;10.60;91.67;101277.47;5073151;28;20040;-35
2022/05/25 01:04:58;;;;;;;4.05;3.60;;;;;;;10.43;91.86;101252.84;5073464;28;20059;-35
2022/05/25 01:07:51;;;;;;;5.07;4.20;;;;;;;10.58;91.79;101277.69;5073473;28;20108;-35
2022/05/25 01:10:40;;;;;;;5.90;4.13;;;;;;;10.48;91.88;101271.94;5072923;28;20259;-35
2022/05/25 01:13:16;;;;;;;4.25;3.85;;;;;;;10.48;91.88;101270.06;5073268;28;20028;-35
2022/05/25 01:16:12;;;;;;;6.07;4.13;;;;;;;10.51;92.30;101283.16;5073487;28;20024;-35
2022/05/25 01:18:54;;;;;;;4.82;4.32;;;;;;;10.45;92.73;101283.22;5073095;28;20031;-35
2022/05/25 01:21:36;;;;;;;6.45;4.40;;;;;;;10.47;92.49;101281.09;5073186;28;20380;-35
2022/05/25 01:24:31;;;;;;;6.30;4.47;;;;;;;10.44;92.81;101284.25;5072905;28;20039;-35
2022/05/25 01:27:23;;;;;;;7.13;5.78;;;;;;;10.44;92.81;101276.13;5073370;28;20052;-35
2022/05/25 01:29:58;;;;;;;6.05;4.78;;;;;;;10.36;92.81;101290.75;5072770;28;20457;-35
2022/05/25 01:32:29;;;;;;;5.53;4.97;;;;;;;10.30;92.82;101275.41;5073322;28;20044;-35
2022/05/25 01:35:07;;;;;;;5.45;4.88;;;;;;;10.34;92.98;101290.13;5072939;28;20365;-35
2022/05/25 01:37:53;;;;;;;6.22;5.15;;;;;;;10.39;93.12;101284.06;5073454;28;20049;-35
2022/05/25 01:40:37;;;;;;;5.13;4.63;;;;;;;10.32;93.28;101286.81;5072693;28;20032;-35
2022/05/25 01:43:15;;;;;;;5.05;4.55;;;;;;;10.36;93.67;101290.75;5073151;28;20029;-35
2022/05/25 01:45:47;;;;;;;5.60;4.70;;;;;;;10.30;93.28;101288.94;5072430;28;20085;-35
2022/05/25 01:48:16;;;;;;;6.20;5.60;;;;;;;10.25;93.33;101283.34;5072813;28;20453;-35
2022/05/25 01:50:48;;;;;;;5.68;4.82;;;;;;;10.30;94.16;101287.06;5072582;28;20028;-35
2022/05/25 01:53:15;;;;;;;5.75;5.22;;;;;;;10.25;94.18;101288.75;5073067;28;20029;-35
2022/05/25 01:55:47;;;;;;;5.97;5.10;;;;;;;10.25;94.06;101294.16;5072802;28;20035;-35
2022/05/25 01:58:18;;;;;;;6.30;5.43;;;;;;;10.22;94.42;101294.56;5071428;28;20037;-35
2022/05/25 02:00:47;;;;;;;6.95;5.38;;;;;;;10.29;94.79;101298.88;5072787;28;20036;-35
2022/05/25 02:06:09;;;;;;;6.32;5.72;;;;;;;10.33;94.66;101302.00;5072501;28;20507;-35
2022/05/25 02:08:36;;;;;;;;;;;;;;;10.43;92.53;101296.94;5073121;28;20031;-35
2022/05/25 02:11:15;;;;;;;6.28;5.60;;;;;;;10.27;93.92;101295.59;5072426;28;19912;-35
2022/05/25 02:13:55;;;;;;;6.00;5.40;;;;;;;10.27;94.63;101292.06;5072725;28;20028;-35
2022/05/25 02:16:30;;;;;;;6.50;5.55;;;;;;;10.29;94.38;101300.78;5076445;28;20024;-35
2022/05/25 02:19:27;;;;;;;5.90;5.30;;;;;;;10.30;93.73;101302.44;5076123;28;20063;-35
2022/05/25 02:21:59;;;;;;;6.72;5.57;;;;;;;10.25;94.25;101294.16;5076570;28;20024;-35
2022/05/25 02:24:46;;;;;;;5.93;5.40;;;;;;;10.24;94.23;101303.28;5076235;28;20366;-35
2022/05/25 02:27:27;;;;;;;6.05;5.45;;;;;;;10.26;95.00;101302.06;5075647;28;20032;-35
2022/05/25 02:29:59;;;;;;;5.97;5.38;;;;;;;10.08;94.19;101283.00;5075880;28;20147;-35
2022/05/25 02:32:45;;;;;;;6.00;5.30;;;;;;;10.14;94.69;101309.16;5075228;28;20029;-35
2022/05/25 02:35:14;;;;;;;7.07;5.47;;;;;;;10.17;94.74;101302.50;5075668;28;20028;-35
2022/05/25 02:37:39;;;;;;;7.15;5.40;;;;;;;10.16;93.87;101317.06;5075806;28;20032;-35
2022/05/25 02:40:08;;;;;;;7.65;5.50;;;;;;;10.06;94.62;101317.53;5075678;28;20036;-35
2022/05/25 02:42:37;;;;;;;7.63;5.50;;;;;;;10.02;94.96;101325.22;5075589;28;20025;-35
2022/05/25 02:45:04;;;;;;;6.20;5.55;;;;;;;10.13;94.56;101321.00;5074364;28;20107;-35
2022/05/25 02:47:29;;;;;;;6.30;5.70;;;;;;;10.09;94.81;101324.34;5075976;28;20037;-35
2022/05/25 02:49:54;;;;;;;5.97;5.20;;;;;;;10.12;94.66;101319.34;5075329;28;20441;-35
2022/05/25 02:52:20;;;;;;;7.53;5.40;;;;;;;10.16;94.18;101325.16;5076028;28;20020;-35
2022/05/25 02:54:45;;;;;;;5.60;5.00;;;;;;;10.14;94.58;101319.13;5075485;28;20842;-35
2022/05/25 02:57:11;;;;;;;6.43;5.30;;;;;;;10.15;93.83;101315.38;5075455;28;20427;-35
2022/05/25 02:59:36;;;;;;;5.82;4.88;;;;;;;10.13;94.43;101317.47;5075379;28;20028;-35
2022/05/25 03:02:04;;;;;;;5.35;4.80;;;;;;;10.17;93.88;101322.25;5075936;28;20032;-35
2022/05/25 03:04:30;;;;;;;7.13;4.63;;;;;;;10.17;94.39;101337.63;5075714;28;20029;-35
2022/05/25 03:06:56;;;;;;;6.55;4.53;;;;;;;10.26;93.91;101337.19;5075532;28;20471;-35
2022/05/25 03:09:21;;;;;;;5.47;4.43;;;;;;;10.20;94.12;101339.88;5074892;28;20027;-35
2022/05/25 03:11:46;;;;;;;5.37;4.63;;;;;;;10.17;93.32;101337.63;5074937;28;20028;-35
2022/05/25 03:14:12;;;;;;;6.23;4.50;;;;;;;10.13;93.59;101344.50;5075120;28;20113;-35
2022/05/25 03:16:37;;;;;;;7.28;4.18;;;;;;;10.12;93.44;101337.44;5075086;28;20031;-35
2022/05/25 03:19:02;;;;;;;8.07;4.17;;;;;;;10.03;94.08;101324.19;5074197;28;20040;-35
2022/05/25 03:21:28;;;;;;;4.60;4.10;;;;;;;10.09;94.21;101327.88;5075537;28;20070;-35
2022/05/25 03:23:53;;;;;;;6.67;3.70;;;;;;;10.09;93.54;101336.00;5074706;28;20025;-35
2022/05/25 03:26:19;;;;;;;5.43;4.05;;;;;;;10.06;93.80;101339.97;5075433;28;20030;-35
2022/05/25 03:28:44;;;;;;;5.47;4.27;;;;;;;10.00;93.88;101342.69;5075435;28;20067;-35
2022/05/25 03:31:10;;;;;;;5.10;3.97;;;;;;;10.02;93.86;101338.72;5075325;28;20116;-35
2022/05/25 03:33:36;;;;;;;6.47;3.60;;;;;;;10.03;94.09;101345.78;5074733;28;20028;-35
2022/05/25 03:36:02;;;;;;;5.83;3.90;;;;;;;10.04;94.06;101341.22;5075330;28;20028;-35
2022/05/25 03:38:28;;;;;;;5.80;4.10;;;;;;;10.06;93.89;101345.38;5074594;28;20031;-35
2022/05/25 03:40:54;;;;;;;5.90;3.67;;;;;;;10.02;94.01;101344.13;5075215;28;20028;-35
2022/05/25 03:43:20;;;;;;;;;;;;;;;10.21;92.44;101357.78;5075281;28;20438;-35
2022/05/25 03:45:48;;;;;;;3.80;3.38;;;;;;;10.10;93.30;101358.44;5075326;28;19912;-35
2022/05/25 03:48:14;;;;;;;5.57;4.03;;;;;;;10.07;93.86;101367.81;5074352;28;20024;-35
2022/05/25 03:50:40;;;;;;;;;;;;;;;10.18;92.95;101369.84;5074816;28;20028;-35
2022/05/25 03:53:08;;;;;;;6.03;3.15;;;;;;;10.04;93.51;101363.66;5074659;28;19908;-35
2022/05/25 03:55:35;;;;;;;7.45;3.47;;;;;;;10.10;92.91;101366.53;5074314;28;20036;-35
2022/05/25 03:58:01;;;;;;;5.53;3.17;;;;;;;10.02;92.98;101376.56;5074197;28;20103;-35
2022/05/25 04:00:26;;;;;;;4.70;2.95;;;;;;;10.14;94.27;101365.91;5073162;28;20033;-35
2022/05/25 04:02:52;;;;;;;4.57;3.45;;;;;;;10.03;93.90;101374.69;5074107;28;20020;-35
2022/05/25 04:05:18;;;;;;;5.97;2.83;;;;;;;9.95;93.43;101361.41;5072137;28;20408;-35
2022/05/25 04:07:46;;;;;;;4.60;3.53;;;;;;;10.05;93.58;101376.16;5074215;28;20462;-35
2022/05/25 04:10:14;;;;;;;6.50;3.72;;;;;;;10.07;93.52;101373.22;5074012;28;20078;-35
2022/05/25 04:12:41;;;;;;;5.13;2.90;;;;;;;10.05;93.72;101386.94;5073753;28;20522;-35
2022/05/25 04:15:08;;;;;;;5.78;3.47;;;;;;;10.01;93.92;101382.19;5073574;28;20063;-35
2022/05/25 04:17:34;;;;;;;5.07;3.40;;;;;;;10.06;93.91;101383.19;5073714;28;20028;-35
2022/05/25 04:20:01;;;;;;;3.67;2.78;;;;;;;10.03;93.49;101385.50;5074264;28;20452;-35
2022/05/25 04:22:26;;;;;;;5.60;3.50;;;;;;;10.01;93.78;101388.41;5073991;28;20032;-35
2022/05/25 04:24:51;;;;;;;5.73;3.40;;;;;;;10.01;93.42;101380.31;5073443;28;20024;-35
2022/05/25 04:27:18;;;;;;;4.47;3.20;;;;;;;10.07;93.53;101390.25;5073593;28;20267;-35
2022/05/25 04:29:44;;;;;;;6.60;3.38;;;;;;;10.07;93.75;101384.84;5073902;28;20777;-35
2022/05/25 04:32:10;;;;;;;4.18;2.50;;;;;;;10.14;93.66;101384.00;5074405;28;20139;-36
2022/05/25 04:34:35;;;;;;;4.72;3.47;;;;;;;10.17;93.64;101388.97;5073951;28;20105;-35
2022/05/25 04:37:48;;;;;;;5.23;2.80;;;;;;;10.19;93.69;101385.00;5072841;28;20064;-35
2022/05/25 04:39:46;;;;;;;8.32;2.78;;;;;;;10.24;93.46;101387.91;5073141;28;20052;-35
2022/05/25 04:42:11;;;;;;;4.30;2.65;;;;;;;10.26;93.13;101380.44;5073709;28;20033;-35
2022/05/25 04:44:37;;;;;;;5.72;3.10;;;;;;;10.31;92.83;101388.72;5073288;28;20089;-35
2022/05/25 04:47:07;;;;;;;6.20;3.05;;;;;;;10.36;93.53;101389.97;5073324;28;20169;-35
2022/05/25 04:49:32;;;;;;;5.63;3.15;;;;;;;10.45;93.31;101396.78;5073054;28;20046;-36
2022/05/25 04:51:58;;;;;;;3.63;2.72;;;;;;;10.44;93.06;101392.38;5073332;28;20028;-35
2022/05/25 04:54:23;;;;;;;6.13;2.80;;;;;;;10.44;93.16;101393.25;5073504;28;20028;-35
2022/05/25 04:59:32;;;;;;;6.75;3.67;;;;;;;10.59;92.85;101398.34;5072961;28;20047;-35
2022/05/25 05:01:59;;;;;;;4.97;3.00;;;;;;;10.63;92.75;101407.66;5073128;28;20032;-36
2022/05/25 05:04:26;;;;;;;5.95;2.78;;;;;;;10.76;92.86;101414.88;5073042;28;20028;-35
2022/05/25 05:06:52;;;;;;;4.75;2.60;;;;;;;10.76;92.66;101413.00;5072792;28;20020;-35
2022/05/25 05:09:17;;;;;;;5.30;2.90;;;;;;;10.79;92.71;101403.63;5072061;28;20040;-35
2022/05/25 05:11:47;;;;;;;5.43;3.67;;;;;;;10.81;92.09;101409.66;5072918;28;20036;-35
2022/05/25 05:14:15;;;;;;;7.82;4.28;;;;;;;10.89;92.63;101409.38;5073155;28;20032;-35
2022/05/25 05:16:41;;;;;;;4.57;3.40;;;;;;;10.91;92.51;101404.56;5072670;28;20086;-35
2022/05/25 05:19:06;;;;;;;6.63;3.20;;;;;;;10.97;92.36;101410.97;5072920;28;20372;-35
2022/05/25 05:21:32;;;;;;;5.85;3.22;;;;;;;11.14;92.06;101408.56;5071687;28;20110;-35
2022/05/25 05:23:57;;;;;;;4.33;3.20;;;;;;;11.16;91.27;101401.88;5072847;28;20374;-34
2022/05/25 05:26:23;;;;;;;6.23;3.50;;;;;;;11.20;90.94;101388.72;5073174;28;20020;-35
2022/05/25 05:28:53;;;;;;;5.80;3.17;;;;;;;11.32;91.46;101392.34;5073309;28;20083;-36
2022/05/25 05:31:19;;;;;;;6.25;3.20;;;;;;;11.37;90.71;101395.25;5072496;28;20345;-35
2022/05/25 05:33:44;;;;;;;4.65;3.50;;;;;;;11.38;90.13;101401.50;5073347;28;20120;-35
2022/05/25 05:36:24;;;;;;;6.57;4.10;;;;;;;11.41;90.69;101395.63;5073295;28;20097;-35
2022/05/25 05:39:00;;;;;;;8.18;3.50;;;;;;;11.41;90.28;101374.78;5073444;28;20101;-35
2022/05/25 05:41:34;;;;;;;5.72;3.30;;;;;;;11.42;90.06;101370.19;5072970;28;20475;-36
2022/05/25 05:43:59;;;;;;;6.78;2.90;;;;;;;11.52;90.37;101370.53;5072688;28;20024;-35
2022/05/25 05:46:27;;;;;;;3.85;3.15;;;;;;;11.59;89.93;101379.41;5072938;28;20090;-36
2022/05/25 05:48:53;;;;;;;5.18;3.30;;;;;;;11.59;89.77;101361.25;5072819;28;20107;-35
2022/05/25 05:51:18;;;;;;;5.38;3.58;;;;;;;11.78;89.29;101381.06;5076985;28;20055;-34
2022/05/25 05:53:44;;;;;;;6.15;3.58;;;;;;;11.84;89.14;101387.47;5077095;28;20087;-35
2022/05/25 05:56:10;;;;;;;5.20;3.17;;;;;;;11.91;89.37;101384.69;5076591;28;20377;-35
2022/05/25 05:58:35;;;;;;;7.55;3.33;;;;;;;11.96;88.66;101393.00;5076530;28;20031;-35
2022/05/25 06:01:00;;;;;;;5.32;3.50;;;;;;;12.02;88.69;101398.31;5076436;28;20039;-35
2022/05/25 06:03:26;;;;;;;8.47;3.83;;;;;;;12.04;88.69;101392.66;5076823;28;20025;-35
2022/05/25 06:05:51;;;;;;;5.88;4.03;;;;;;;11.96;88.70;101380.25;5076638;28;20159;-35
2022/05/25 06:08:21;;;;;;;6.43;3.55;;;;;;;12.05;88.22;101399.72;5076245;28;20031;-35
2022/05/25 06:10:46;;;;;;;7.65;3.55;;;;;;;12.11;88.51;101399.69;5076617;28;20036;-35
2022/05/25 06:13:12;;;;;;;5.43;3.80;;;;;;;12.24;88.75;101405.97;5076642;28;20062;-35
2022/05/25 06:21:09;;;;;;;7.45;4.60;;;;;;;12.37;88.41;101405.81;5076151;28;20146;-35
2022/05/25 06:23:35;;;;;;;7.88;3.78;;;;;;;12.37;88.20;101403.91;5075820;28;20029;-35
2022/05/25 06:26:00;;;;;;;5.53;4.10;;;;;;;12.50;88.17;101418.38;5076398;28;20146;-35
2022/05/25 06:28:25;;;;;;;6.87;4.20;;;;;;;12.48;87.49;101413.16;5075728;28;20044;-35
2022/05/25 06:30:50;;;;;;;6.83;4.70;;;;;;;12.49;87.05;101414.84;5076528;28;20032;-35
2022/05/25 06:33:16;;;;;;;9.53;4.37;;;;;;;12.51;86.81;101422.72;5075780;28;20271;-35
2022/05/25 06:35:41;;;;;;;7.65;4.88;;;;;;;12.43;87.06;101423.88;5076499;28;20054;-35
2022/05/25 06:38:07;;;;;;;7.83;4.90;;;;;;;12.49;87.82;101430.25;5076274;28;20037;-35
2022/05/25 06:40:32;;;;;;;9.33;4.87;;;;;;;12.44;87.65;101443.69;5076378;28;20251;-35
2022/05/25 06:42:57;;;;;;;9.20;6.38;;;;;;;12.44;87.62;101428.22;5075701;28;20024;-35
2022/05/25 06:45:23;;;;;;;7.27;5.97;;;;;;;12.40;87.33;101410.78;5075558;28;20469;-35
2022/05/25 06:47:49;;;;;;;;;;;;;;;12.67;87.17;101432.94;5076245;28;20636;-35
2022/05/25 06:50:14;;;;;;;10.45;6.75;;;;;;;12.59;86.80;101441.38;5075524;28;19912;-35
2022/05/25 06:52:39;;;;;;;13.67;8.83;;;;;;;12.65;86.99;101450.50;5075782;28;20487;-35
2022/05/25 06:55:05;;;;;;;9.33;7.17;;;;;;;12.67;87.20;101443.78;5075791;28;20480;-35
2022/05/25 06:57:31;;;;;;;;;;;;;;;12.77;86.81;101452.19;5075828;28;20032;-35
2022/05/25 06:59:56;;;;;;;10.32;8.07;;;;;;;12.62;87.58;101446.38;5107694;28;19919;-35
2022/05/25 07:02:25;;;;;;;8.67;7.47;;;;;;;12.61;86.31;101456.38;5075300;28;20082;-35
2022/05/25 07:04:51;;;;;;;10.02;7.88;;;;;;;12.63;86.77;101448.84;5075383;28;20575;-35
2022/05/25 07:07:17;;;;;;;9.30;7.78;;;;;;;12.69;87.18;101447.13;5075009;28;20111;-35
2022/05/25 07:09:43;;;;;;;12.70;8.70;;;;;;;12.68;86.93;101448.16;5075674;28;20100;-35
2022/05/25 07:12:09;;;;;;;16.10;9.63;;;;;;;12.68;87.45;101444.59;5075444;28;20422;-35
2022/05/25 07:14:39;;;;;;;10.27;9.23;;;;;;;12.80;87.09;101456.34;5075438;28;20025;-35
2022/05/25 07:17:06;;;;;;;11.38;8.93;;;;;;;12.90;86.87;101467.47;5075248;28;20370;-35
2022/05/25 07:19:31;;;;;;;12.65;9.98;;;;;;;12.92;86.17;101476.19;5075000;28;20388;-35
2022/05/25 07:21:57;;;;;;;11.27;9.23;;;;;;;12.89;86.00;101474.78;5074756;28;20029;-35
2022/05/25 07:24:23;;;;;;;10.52;9.15;;;;;;;12.94;86.75;101476.81;5074954;28;20154;-35
2022/05/25 07:26:48;;;;;;;11.20;10.00;;;;;;;12.89;85.77;101480.22;5075660;28;20029;-35
2022/05/25 07:29:14;;;;;;;10.35;9.35;;;;;;;12.83;86.42;101473.00;5074962;28;20106;-36
2022/05/25 07:31:49;;;;;;;11.00;9.90;;;;;;;12.87;86.53;101482.31;5075419;28;20107;-36
2022/05/25 07:34:23;;;;;;;10.35;9.23;;;;;;;12.88;86.64;101484.00;5075303;28;20021;-35
2022/05/25 07:36:54;;;;;;;10.38;9.15;;;;;;;12.94;86.51;101462.41;5074909;28;20107;-35
2022/05/25 07:39:24;;;;;;;8.45;7.65;;;;;;;13.20;86.80;101478.28;5074421;28;20029;-35
2022/05/25 07:41:52;;;;;;;8.05;5.72;;;;;;;13.39;85.39;101481.78;5074757;28;20039;-35
2022/05/25 07:44:28;;;;;;;6.93;6.22;;;;;;;13.53;84.33;101474.25;5075297;28;20024;-35
2022/05/25 07:46:53;;;;;;;11.82;6.20;;;;;;;13.73;83.82;101466.56;5074618;28;20099;-37
2022/05/25 07:49:19;;;;;;;9.88;6.60;;;;;;;14.00;82.91;101477.75;5073458;28;20148;-35
2022/05/25 07:51:45;;;;;;;8.98;5.95;;;;;;;14.21;82.57;101480.94;5074923;28;20033;-36
2022/05/25 07:54:11;;;;;;;8.50;6.22;;;;;;;14.14;80.83;101490.03;5074624;28;20029;-35
2022/05/25 07:56:37;;;;;;;;;;;;;;;14.23;81.89;101482.34;5075362;28;20512;-36
2022/05/25 07:59:06;;;;;;;8.15;5.50;;;;;;;14.14;81.40;101486.50;5073902;28;19931;-36
2022/05/25 08:07:08;;;;;;;9.77;5.55;;;;;;;14.52;81.88;101491.41;5074163;28;20090;-36
2022/05/25 08:09:34;;;;;;;;;;;;;;;14.58;81.07;101493.16;5074129;28;20033;-36
2022/05/25 08:12:01;;;;;;;8.93;5.60;;;;;;;14.53;80.77;101495.78;5073638;28;20261;-35
2022/05/25 08:14:29;;;;;;;8.48;5.30;;;;;;;14.60;80.62;101491.03;5074082;28;20024;-36
2022/05/25 08:16:54;;;;;;;6.72;4.40;;;;;;;14.69;79.66;101486.03;5074112;28;20032;-35
2022/05/25 08:19:20;;;;;;;;;;;;;;;14.90;78.13;101496.25;5072835;28;20048;-36
2022/05/25 08:21:47;;;;;;;5.13;3.88;;;;;;;14.93;77.51;101495.75;5074117;28;19912;-36
2022/05/25 08:24:13;;;;;;;6.40;3.70;;;;;;;15.12;78.87;101490.91;5073794;28;20070;-36
2022/05/25 08:26:39;;;;;;;5.75;3.58;;;;;;;15.29;78.15;101490.94;5073929;28;20512;-36
2022/05/25 08:29:04;;;;;;;;;;;;;;;15.47;77.16;101495.34;5073721;28;20190;-36
2022/05/25 08:31:29;;;;;;;6.57;3.97;;;;;;;15.39;74.93;101488.38;5073476;28;19959;-36
2022/05/25 08:33:54;;;;;;;8.20;4.20;;;;;;;15.44;75.79;101474.84;5073725;28;20266;-35
2022/05/25 08:36:20;;;;;;;;;;;;;;;15.52;76.57;101479.06;5074019;28;20032;-36
2022/05/25 08:38:45;;;;;;;6.13;2.80;;;;;;;15.51;75.23;101480.09;5073526;28;19912;-36
2022/05/25 08:41:10;;;;;;;4.93;2.97;;;;;;;15.70;76.15;101476.09;5074060;28;20646;-35
2022/05/25 08:43:45;;;;;;;4.80;3.00;;;;;;;15.96;74.93;101476.47;5073388;28;20663;-36
2022/05/25 08:46:14;;;;;;;5.38;2.35;;;;;;;16.19;74.91;101478.13;5074447;28;20028;-36
2022/05/25 08:48:42;;;;;;;4.30;2.50;;;;;;;16.16;72.83;101476.75;5073568;28;20028;-36
2022/05/25 08:51:11;;;;;;;5.15;2.35;;;;;;;16.29;73.40;101472.78;5073114;28;20116;-36
2022/05/25 08:53:38;;;;;;;5.10;2.50;;;;;;;16.31;72.54;101450.72;5073176;28;20473;-36
2022/05/25 08:56:29;;;;;;;4.75;2.20;;;;;;;16.61;71.69;101469.38;5073557;28;20440;-36
2022/05/25 08:59:09;;;;;;;5.55;2.22;;;;;;;16.57;70.59;101463.59;5073869;28;20354;-36
2022/05/25 09:01:43;;;;;;;4.72;2.10;;;;;;;16.50;69.36;101468.44;5073315;28;20028;-36
2022/05/25 09:04:29;;;;;;;2.92;1.98;;;;;;;16.61;72.52;101472.91;5073595;28;20028;-36
2022/05/25 09:07:02;;;;;;;6.93;2.50;;;;;;;16.71;68.71;101469.47;5073788;28;20039;-36
2022/05/25 09:09:38;;;;;;;4.13;1.77;;;;;;;16.62;69.28;101460.91;5073390;28;20408;-36
2022/05/25 09:12:06;;;;;;;3.97;1.90;;;;;;;16.46;68.25;101470.03;5073451;28;20032;-36
2022/05/25 09:14:44;;;;;;;5.47;1.65;;;;;;;16.57;68.00;101463.59;5073010;28;20021;-36
2022/05/25 09:17:32;;;;;;;3.20;1.30;;;;;;;16.79;66.66;101469.06;5072844;28;20496;-36
2022/05/25 09:20:02;;;;;;;2.75;1.33;;;;;;;16.94;64.74;101473.84;5070447;28;20522;-36
2022/05/25 09:22:31;;;;;;;5.90;1.50;;;;;;;17.08;64.44;101464.16;5073929;28;20116;-36
2022/05/25 09:24:59;;;;;;;3.75;1.10;;;;;;;17.24;63.00;101473.31;5073152;28;20055;-36
2022/05/25 09:27:32;;;;;;;6.90;1.30;;;;;;;17.53;63.46;101482.03;5073373;28;20033;-36
2022/05/25 09:30:01;;;;;;;3.33;1.08;;;;;;;17.62;61.12;101476.91;5073740;28;20045;-36
2022/05/25 09:32:38;;;;;;;3.55;1.10;;;;;;;17.82;61.37;101470.75;5073805;28;20082;-36
2022/05/25 09:35:24;;;;;;;2.50;0.80;;;;;;;17.96;58.82;101480.16;5073077;28;20028;-36
2022/05/25 09:38:01;;;;;;;3.00;0.80;;;;;;;18.17;59.74;101481.91;5073127;28;20032;-36
2022/05/25 09:40:34;;;;;;;3.45;1.10;;;;;;;17.93;58.43;101486.16;5073555;28;20089;-36
2022/05/25 09:43:03;;;;;;;5.22;1.35;;;;;;;17.75;58.16;101481.91;5072937;28;20078;-36
2022/05/25 09:45:49;;;;;;;2.90;1.05;;;;;;;17.65;58.73;101479.91;5073094;28;20487;-36
2022/05/25 09:48:26;;;;;;;1.75;0.70;;;;;;;17.89;57.63;101485.03;5072967;28;20535;-36
2022/05/25 09:51:04;;;;;;;2.90;0.98;;;;;;;18.04;56.29;101493.31;5072726;28;20028;-36
2022/05/25 09:53:38;;;;;;;1.88;0.90;;;;;;;18.14;56.07;101493.38;5072767;28;20029;-36
2022/05/25 09:56:09;;;;;;;3.10;1.00;;;;;;;18.27;54.99;101495.63;5073028;28;20385;-36
2022/05/25 09:58:39;;;;;;;2.17;1.25;;;;;;;18.29;55.68;101492.63;5073442;28;20036;-36
2022/05/25 10:01:16;;;;;;;2.83;0.93;;;;;;;18.20;55.60;101489.59;5073324;28;20035;-36
2022/05/25 10:03:44;;;;;;;2.80;0.90;;;;;;;18.03;54.80;101502.63;5072931;28;20078;-36
2022/05/25 10:06:49;;;;;;;2.03;1.13;;;;;;;17.88;56.53;101499.78;5072908;28;20032;-36
2022/05/25 10:09:25;;;;;;;3.70;1.23;;;;;;;17.72;56.47;101505.13;5073067;28;20441;-36
2022/05/25 10:11:55;;;;;;;3.17;1.20;;;;;;;17.67;56.80;101498.81;5072946;28;20488;-36
2022/05/25 10:14:31;;;;;;;2.83;1.33;;;;;;;17.86;57.12;101500.06;5072547;28;20374;-36
2022/05/25 10:17:13;;;;;;;3.38;1.48;;;;;;;18.05;57.32;101484.00;5072330;28;20027;-36
2022/05/25 10:19:48;;;;;;;2.05;1.05;;;;;;;18.35;55.92;101499.78;5072481;28;20028;-36
2022/05/25 10:22:32;;;;;;;5.10;1.40;;;;;;;18.70;55.35;101493.63;5073210;28;20095;-36
2022/05/25 10:25:23;;;;;;;3.50;1.10;;;;;;;18.96;53.78;101499.19;5072372;28;20119;-36
2022/05/25 10:27:49;;;;;;;2.58;1.00;;;;;;;18.96;53.87;101499.19;5030089;28;20041;-36
2022/05/25 10:39:24;;;;;;;2.50;0.75;;;;;;;18.60;51.02;101470.84;5054196;28;20063;-36
2022/05/25 10:42:03;;;;;;;3.85;0.60;;;;;;;18.65;51.69;101477.16;5053699;28;20041;-36
2022/05/25 10:44:55;;;;;;;3.17;0.70;;;;;;;18.86;50.68;101477.25;5053626;28;20036;-36
2022/05/25 10:47:44;;;;;;;2.88;0.70;;;;;;;19.14;51.69;101470.44;5054008;28;20501;-36
2022/05/25 10:50:45;;;;;;;2.28;0.60;;;;;;;19.45;50.21;101476.72;5053878;28;20404;-36
2022/05/25 10:53:34;;;;;;;3.25;0.70;;;;;;;19.55;47.75;101460.25;4974524;28;20042;-36
2022/05/25 10:56:08;;;;;;;1.52;0.50;;;;;;;19.68;48.06;101470.72;4974892;28;20038;-36
2022/05/25 10:59:11;;;;;;;1.55;0.70;;;;;;;19.59;48.93;101466.84;4974875;28;20579;-36
2022/05/25 11:01:57;;;;;;;1.50;0.52;;;;;;;19.50;49.03;101452.84;4974736;28;20034;-36
2022/05/25 11:04:31;;;;;;;1.65;0.70;;;;;;;19.47;49.26;101466.28;4974588;28;20542;-36
2022/05/25 11:07:04;;;;;;;3.60;0.93;;;;;;;19.51;49.18;101467.38;4994792;28;20116;-36
2022/05/25 11:09:37;;;;;;;1.58;0.55;;;;;;;19.79;49.36;101472.31;5013551;28;20042;-36
2022/05/25 11:12:37;;;;;;;2.38;0.65;;;;;;;19.93;48.15;101469.00;5013983;28;20453;-36
2022/05/25 11:15:17;;;;;;;3.67;0.60;;;;;;;20.09;47.97;101467.84;5013726;28;20044;-36
2022/05/25 11:17:59;;;;;;;2.58;0.75;;;;;;;20.40;48.58;101474.06;5013369;28;20045;-36
2022/05/25 11:20:32;;;;;;;4.45;0.90;;;;;;;20.33;46.17;101471.59;5013347;28;20029;-36
2022/05/25 11:23:34;;;;;;;2.33;0.80;;;;;;;20.20;47.12;101455.72;5013587;28;20041;-36
2022/05/25 11:26:17;;;;;;;1.40;0.52;;;;;;;20.10;47.47;101447.53;5013028;28;20041;-36
2022/05/25 11:29:21;;;;;;;1.85;0.57;;;;;;;20.47;47.10;101438.91;5025022;28;20056;-36
2022/05/25 11:32:24;;;;;;;3.47;0.70;;;;;;;20.63;47.22;101452.53;5074949;28;20530;-36
2022/05/25 11:35:24;;;;;;;2.15;0.88;;;;;;;20.86;47.79;101451.03;5074916;28;20028;-36
2022/05/25 11:38:01;;;;;;;2.20;0.50;;;;;;;20.95;42.17;101447.38;5075147;28;20429;-36
2022/05/25 11:41:07;;;;;;;1.42;0.43;;;;;;;21.18;43.66;101459.59;5075321;28;20042;-36
2022/05/25 11:44:10;;;;;;;2.13;0.55;;;;;;;20.66;42.36;101458.28;5052400;28;20036;-36
2022/05/25 11:46:45;;;;;;;2.88;0.50;;;;;;;20.03;42.78;101455.25;5052766;28;20381;-36
2022/05/25 11:49:33;;;;;;;2.25;0.60;;;;;;;19.97;44.06;101459.94;5052899;28;20063;-36
2022/05/25 11:52:17;;;;;;;1.50;0.40;;;;;;;19.92;44.02;101459.13;5052466;28;20033;-36
2022/05/25 11:55:06;;;;;;;1.08;0.40;;;;;;;20.03;45.43;101456.06;5052189;28;20041;-36
2022/05/25 11:57:52;;;;;;;2.50;0.70;;;;;;;20.23;46.23;101459.84;5052391;28;20513;-36
2022/05/25 12:00:33;;;;;;;;;;;;;;;20.18;45.35;101466.19;5052511;28;20031;-36
2022/05/25 12:03:20;;;;;;;3.15;0.80;;;;;;;19.68;46.45;101475.38;5052817;28;19913;-36
2022/05/25 12:06:06;;;;;;;3.30;0.63;;;;;;;19.29;45.04;101475.91;5052148;28;20059;-36
2022/05/25 12:08:49;;;;;;;3.20;0.60;;;;;;;19.08;45.85;101460.53;5051956;28;20072;-36
2022/05/25 12:11:40;;;;;;;2.50;0.77;;;;;;;19.43;46.78;101454.25;5051797;28;20061;-36
2022/05/25 12:14:36;;;;;;;3.50;0.52;;;;;;;19.77;45.93;101452.59;5051907;28;20261;-36